Time;durP1;ratioP1;P1;durP2;ratioP2;P2;SDS_P1;SDS_P2;PMS_P1;PMS_P2;Temp;Humidity;BMP_temperature;BMP_pressure;BME280_temperature;BME280_humidity;BME280_pressure;Samples;Min_cycle;Max_cycle;Signal;HPM_P1;HPM_P2
2022/04/12 00:00:25;;;;;;;17.40;14.23;;;;;;;;;;5094650;28;20051;-69
2022/04/12 00:02:51;;;;;;;17.58;14.80;;;;;;;;;;5113031;28;20048;-69
2022/04/12 00:05:18;;;;;;;20.92;14.38;;;;;;;;;;5113036;28;20405;-69
2022/04/12 00:07:44;;;;;;;20.38;14.90;;;;;;;;;;5104618;28;20048;-68
2022/04/12 00:10:11;;;;;;;19.77;15.07;;;;;;;;;;5094595;28;20040;-67
2022/04/12 00:12:37;;;;;;;20.67;14.48;;;;;;;;;;5111837;28;20048;-70
2022/04/12 00:15:05;;;;;;;18.60;15.13;;;;;;;;;;5103082;28;20062;-69
2022/04/12 00:20:16;;;;;;;20.60;14.98;;;;;;;;;;5113270;28;20048;-69
2022/04/12 00:22:42;;;;;;;17.00;13.38;;;;;;;;;;5109911;28;20040;-70
2022/04/12 00:25:09;;;;;;;20.60;14.98;;;;;;;;;;5105735;28;20350;-71
2022/04/12 00:27:40;;;;;;;17.20;13.82;;;;;;;;;;5111535;28;20071;-69
2022/04/12 00:30:07;;;;;;;21.40;14.43;;;;;;;;;;5112767;28;20046;-69
2022/04/12 00:32:33;;;;;;;17.75;14.45;;;;;;;;;;5112254;28;20048;-69
2022/04/12 00:35:00;;;;;;;18.35;14.65;;;;;;;;;;5112088;28;20462;-70
2022/04/12 00:37:26;;;;;;;19.42;14.30;;;;;;;;;;5113513;28;20044;-67
2022/04/12 00:39:52;;;;;;;18.25;14.35;;;;;;;;;;5113153;28;20043;-70
2022/04/12 00:42:19;;;;;;;19.48;14.65;;;;;;;;;;5112799;28;20403;-69
2022/04/12 00:44:45;;;;;;;18.25;14.13;;;;;;;;;;5112333;28;20100;-69
2022/04/12 00:47:11;;;;;;;17.42;13.50;;;;;;;;;;5113676;28;20072;-70
2022/04/12 00:49:37;;;;;;;18.85;14.50;;;;;;;;;;5111931;28;20040;-69
2022/04/12 00:52:04;;;;;;;18.33;13.90;;;;;;;;;;5108576;28;20068;-69
2022/04/12 00:54:31;;;;;;;16.92;13.10;;;;;;;;;;5094934;28;20051;-68
2022/04/12 00:56:58;;;;;;;16.88;13.90;;;;;;;;;;5111366;28;20044;-70
2022/04/12 00:59:24;;;;;;;17.85;13.30;;;;;;;;;;5111556;28;20208;-69
2022/04/12 01:01:50;;;;;;;16.80;13.75;;;;;;;;;;5110035;28;20086;-69
2022/04/12 01:04:16;;;;;;;18.33;13.05;;;;;;;;;;5090140;28;20136;-69
2022/04/12 01:06:42;;;;;;;16.35;13.82;;;;;;;;;;5112303;28;20036;-72
2022/04/12 01:09:09;;;;;;;16.13;13.80;;;;;;;;;;5110036;28;20627;-69
2022/04/12 01:11:36;;;;;;;17.50;14.07;;;;;;;;;;5112742;28;20047;-69
2022/04/12 01:14:02;;;;;;;18.08;13.82;;;;;;;;;;5112820;28;20055;-69
2022/04/12 01:16:28;;;;;;;16.80;13.93;;;;;;;;;;5111304;28;20576;-70
2022/04/12 01:18:54;;;;;;;19.23;14.23;;;;;;;;;;5094380;28;20093;-70
2022/04/12 01:21:20;;;;;;;19.08;13.30;;;;;;;;;;5111141;28;20048;-69
2022/04/12 01:23:58;;;;;;;18.88;14.45;;;;;;;;;;5112289;28;20043;-69
2022/04/12 01:26:24;;;;;;;18.67;13.52;;;;;;;;;;5110915;28;20071;-70
2022/04/12 01:28:50;;;;;;;17.58;13.77;;;;;;;;;;5108401;28;20047;-69
2022/04/12 01:31:16;;;;;;;18.63;13.85;;;;;;;;;;5111310;28;20043;-71
2022/04/12 01:33:43;;;;;;;17.50;13.88;;;;;;;;;;5112488;28;20039;-69
2022/04/12 01:36:09;;;;;;;17.77;14.13;;;;;;;;;;5109644;28;20061;-69
2022/04/12 01:38:35;;;;;;;17.73;14.07;;;;;;;;;;5111853;28;20040;-70
2022/04/12 01:41:02;;;;;;;19.35;13.95;;;;;;;;;;5106346;28;20395;-68
2022/04/12 01:43:28;;;;;;;18.38;13.75;;;;;;;;;;5102323;28;20105;-69
2022/04/12 01:45:54;;;;;;;21.33;14.63;;;;;;;;;;5101209;28;20513;-71
2022/04/12 01:48:20;;;;;;;19.30;14.23;;;;;;;;;;5110840;28;20391;-70
2022/04/12 01:50:46;;;;;;;18.80;13.82;;;;;;;;;;5109800;28;20414;-68
2022/04/12 01:53:12;;;;;;;17.65;13.63;;;;;;;;;;5100247;28;20127;-70
2022/04/12 01:55:39;;;;;;;16.67;13.80;;;;;;;;;;5112139;28;20043;-71
2022/04/12 01:58:05;;;;;;;17.38;13.27;;;;;;;;;;5108246;28;20422;-69
2022/04/12 02:00:31;;;;;;;17.95;13.57;;;;;;;;;;5091663;28;20043;-69
2022/04/12 02:02:57;;;;;;;18.95;14.18;;;;;;;;;;5110811;28;20482;-69
2022/04/12 02:05:23;;;;;;;15.55;13.95;;;;;;;;;;5111026;28;20048;-69
2022/04/12 02:07:49;;;;;;;18.77;14.10;;;;;;;;;;5111477;28;20047;-70
2022/04/12 02:10:18;;;;;;;20.08;13.35;;;;;;;;;;5111088;28;20038;-70
2022/04/12 02:12:44;;;;;;;19.17;13.80;;;;;;;;;;5115624;28;20195;-72
2022/04/12 02:15:10;;;;;;;17.38;13.77;;;;;;;;;;5109381;28;20052;-70
2022/04/12 02:17:36;;;;;;;20.67;13.68;;;;;;;;;;5106189;28;20039;-69
2022/04/12 02:20:02;;;;;;;17.77;13.70;;;;;;;;;;5115875;28;20499;-70
2022/04/12 02:22:28;;;;;;;21.23;14.00;;;;;;;;;;5112785;28;20044;-70
2022/04/12 02:24:54;;;;;;;19.88;13.95;;;;;;;;;;5107470;28;20126;-69
2022/04/12 02:27:20;;;;;;;18.70;12.40;;;;;;;;;;5112493;28;20516;-70
2022/04/12 02:29:46;;;;;;;17.05;13.52;;;;;;;;;;5112586;28;20118;-70
2022/04/12 02:32:12;;;;;;;16.63;13.18;;;;;;;;;;5114422;28;20532;-68
2022/04/12 02:34:38;;;;;;;19.95;14.23;;;;;;;;;;5116512;28;20084;-69
2022/04/12 02:37:04;;;;;;;17.63;13.25;;;;;;;;;;5090337;28;20036;-70
2022/04/12 02:39:30;;;;;;;19.05;13.48;;;;;;;;;;5116693;28;20058;-70
2022/04/12 02:41:56;;;;;;;18.60;13.43;;;;;;;;;;5115447;28;20046;-69
2022/04/12 02:44:23;;;;;;;20.40;14.20;;;;;;;;;;5097971;28;20043;-70
2022/04/12 02:46:49;;;;;;;18.50;13.68;;;;;;;;;;5114200;28;20408;-69
2022/04/12 02:49:15;;;;;;;17.75;13.30;;;;;;;;;;5080248;28;20392;-69
2022/04/12 02:51:41;;;;;;;18.73;13.30;;;;;;;;;;5114614;28;20065;-71
2022/04/12 02:54:07;;;;;;;18.10;13.50;;;;;;;;;;5114477;28;20047;-71
2022/04/12 02:56:33;;;;;;;19.38;13.50;;;;;;;;;;5114945;28;20044;-70
2022/04/12 02:58:59;;;;;;;18.70;13.15;;;;;;;;;;5113945;28;20454;-67
2022/04/12 03:01:25;;;;;;;18.08;13.70;;;;;;;;;;5106418;28;20388;-72
2022/04/12 03:03:51;;;;;;;18.30;14.43;;;;;;;;;;5115309;28;20122;-70
2022/04/12 03:06:17;;;;;;;18.45;13.60;;;;;;;;;;5107638;28;20043;-68
2022/04/12 03:08:43;;;;;;;17.33;13.75;;;;;;;;;;5112860;28;20489;-69
2022/04/12 03:11:09;;;;;;;20.67;14.40;;;;;;;;;;5108728;28;20076;-70
2022/04/12 03:13:35;;;;;;;18.05;14.10;;;;;;;;;;5105847;28;20117;-69
2022/04/12 03:16:01;;;;;;;16.77;13.18;;;;;;;;;;5114844;28;20108;-68
2022/04/12 03:18:27;;;;;;;16.77;13.77;;;;;;;;;;5099152;28;20040;-69
2022/04/12 03:20:53;;;;;;;18.25;13.15;;;;;;;;;;5105001;28;20043;-68
2022/04/12 03:23:19;;;;;;;19.60;13.63;;;;;;;;;;5115001;28;20040;-70
2022/04/12 03:25:46;;;;;;;18.65;14.07;;;;;;;;;;5113139;28;20047;-72
2022/04/12 03:28:12;;;;;;;17.20;13.77;;;;;;;;;;5114068;28;20176;-68
2022/04/12 03:30:38;;;;;;;17.25;13.95;;;;;;;;;;5114174;28;20183;-69
2022/04/12 03:33:04;;;;;;;19.88;13.43;;;;;;;;;;5114009;28;20054;-67
2022/04/12 03:35:30;;;;;;;16.08;13.18;;;;;;;;;;5112785;28;20506;-70
2022/04/12 03:38:00;;;;;;;16.85;12.88;;;;;;;;;;5114587;28;20047;-69
2022/04/12 03:40:27;;;;;;;17.25;13.15;;;;;;;;;;5099116;28;20040;-69
2022/04/12 03:42:53;;;;;;;17.42;12.85;;;;;;;;;;5094946;28;20123;-69
2022/04/12 03:45:20;;;;;;;16.83;12.52;;;;;;;;;;5113778;28;20043;-69
2022/04/12 03:47:46;;;;;;;17.38;12.70;;;;;;;;;;5114678;28;20452;-69
2022/04/12 03:50:12;;;;;;;19.67;12.65;;;;;;;;;;5108416;28;20036;-69
2022/04/12 03:52:38;;;;;;;16.33;12.43;;;;;;;;;;5112623;28;20043;-69
2022/04/12 03:55:04;;;;;;;16.77;12.50;;;;;;;;;;5113167;28;20152;-68
2022/04/12 03:57:32;;;;;;;20.50;13.25;;;;;;;;;;5111068;28;20035;-69
2022/04/12 03:59:58;;;;;;;16.90;12.32;;;;;;;;;;5093930;28;20041;-69
2022/04/12 04:02:24;;;;;;;16.95;12.38;;;;;;;;;;5114400;28;20443;-70
2022/04/12 04:04:51;;;;;;;17.67;13.15;;;;;;;;;;5112964;28;20039;-69
2022/04/12 04:07:17;;;;;;;16.65;12.60;;;;;;;;;;5111506;28;20044;-69
2022/04/12 04:09:43;;;;;;;20.08;12.70;;;;;;;;;;5095940;28;20048;-71
2022/04/12 04:12:09;;;;;;;20.48;13.05;;;;;;;;;;5102378;28;20060;-70
2022/04/12 04:14:35;;;;;;;16.08;12.23;;;;;;;;;;5094925;28;20048;-68
2022/04/12 04:17:01;;;;;;;17.45;12.82;;;;;;;;;;5114634;28;20043;-68
2022/04/12 04:19:27;;;;;;;19.63;13.00;;;;;;;;;;5113885;28;20047;-70
2022/04/12 04:21:55;;;;;;;18.08;13.43;;;;;;;;;;5112930;28;20473;-69
2022/04/12 04:24:22;;;;;;;18.35;12.65;;;;;;;;;;5112768;28;20466;-69
2022/04/12 04:26:54;;;;;;;17.77;13.65;;;;;;;;;;5114172;28;20553;-69
2022/04/12 04:29:21;;;;;;;18.02;13.05;;;;;;;;;;5110149;28;20123;-69
2022/04/12 04:31:48;;;;;;;16.65;12.75;;;;;;;;;;5111454;28;20514;-69
2022/04/12 04:34:14;;;;;;;18.45;13.23;;;;;;;;;;5112350;28;20518;-70
2022/04/12 04:36:40;;;;;;;18.70;13.82;;;;;;;;;;5111366;28;20051;-70
2022/04/12 04:39:06;;;;;;;17.77;12.82;;;;;;;;;;5113505;28;20047;-69
2022/04/12 04:41:32;;;;;;;16.98;13.50;;;;;;;;;;5102732;28;20468;-70
2022/04/12 04:43:58;;;;;;;17.85;13.35;;;;;;;;;;5103527;28;20413;-69
2022/04/12 04:46:24;;;;;;;17.50;13.73;;;;;;;;;;5111872;28;20043;-69
2022/04/12 04:48:50;;;;;;;18.88;13.60;;;;;;;;;;5112547;28;20418;-69
2022/04/12 04:51:16;;;;;;;19.13;13.88;;;;;;;;;;5077169;28;20041;-69
2022/04/12 04:53:45;;;;;;;17.95;13.43;;;;;;;;;;5111918;28;20040;-72
2022/04/12 04:56:11;;;;;;;17.38;13.70;;;;;;;;;;5112439;28;20571;-69
2022/04/12 04:58:37;;;;;;;19.00;14.27;;;;;;;;;;5093874;28;20047;-70
2022/04/12 05:01:03;;;;;;;21.73;13.75;;;;;;;;;;5112338;28;20039;-70
2022/04/12 05:03:29;;;;;;;21.67;13.88;;;;;;;;;;5113569;28;20039;-70
2022/04/12 05:05:55;;;;;;;17.83;13.93;;;;;;;;;;5095103;28;20486;-68
2022/04/12 05:08:21;;;;;;;16.70;13.80;;;;;;;;;;5111981;28;20081;-69
2022/04/12 05:10:47;;;;;;;17.33;13.02;;;;;;;;;;5108354;28;20040;-70
2022/04/12 05:13:13;;;;;;;17.98;13.20;;;;;;;;;;5107509;28;20545;-70
2022/04/12 05:15:39;;;;;;;16.58;12.55;;;;;;;;;;5112601;28;20448;-68
2022/04/12 05:18:05;;;;;;;18.20;13.20;;;;;;;;;;5112943;28;20054;-67
2022/04/12 05:20:32;;;;;;;18.52;13.32;;;;;;;;;;5109313;28;20039;-69
2022/04/12 05:22:58;;;;;;;17.67;13.38;;;;;;;;;;5108530;28;20495;-68
2022/04/12 05:25:24;;;;;;;18.95;13.80;;;;;;;;;;5112379;28;20071;-69
2022/04/12 05:27:50;;;;;;;18.75;13.48;;;;;;;;;;5111425;28;20047;-69
2022/04/12 05:30:16;;;;;;;19.08;13.85;;;;;;;;;;5111497;28;20043;-69
2022/04/12 05:32:42;;;;;;;18.63;13.38;;;;;;;;;;5112120;28;20035;-69
2022/04/12 05:35:09;;;;;;;18.25;13.90;;;;;;;;;;5108928;28;20042;-69
2022/04/12 05:37:45;;;;;;;22.00;13.20;;;;;;;;;;5094721;28;20051;-69
2022/04/12 05:40:12;;;;;;;18.10;13.20;;;;;;;;;;5111090;28;20036;-70
2022/04/12 05:42:39;;;;;;;18.02;13.52;;;;;;;;;;5111863;28;20540;-70
2022/04/12 05:45:05;;;;;;;18.20;13.57;;;;;;;;;;5111716;28;20105;-69
2022/04/12 05:47:39;;;;;;;17.63;12.95;;;;;;;;;;5111625;28;20490;-68
2022/04/12 05:50:06;;;;;;;17.08;12.65;;;;;;;;;;5109177;28;20056;-70
2022/04/12 05:52:32;;;;;;;17.80;12.70;;;;;;;;;;5110761;28;20092;-70
2022/04/12 05:54:58;;;;;;;17.85;12.38;;;;;;;;;;5111322;28;20119;-69
2022/04/12 05:57:24;;;;;;;18.05;12.40;;;;;;;;;;5105384;28;20127;-69
2022/04/12 05:59:50;;;;;;;16.52;12.80;;;;;;;;;;5102983;28;20036;-69
2022/04/12 06:02:16;;;;;;;18.05;12.00;;;;;;;;;;5110952;28;20063;-69
2022/04/12 06:04:42;;;;;;;15.20;11.98;;;;;;;;;;5110407;28;20036;-69
2022/04/12 06:07:08;;;;;;;17.85;11.88;;;;;;;;;;5103813;28;20106;-69
2022/04/12 06:09:34;;;;;;;16.35;12.15;;;;;;;;;;5108707;28;20067;-68
2022/04/12 06:12:01;;;;;;;16.85;12.57;;;;;;;;;;5105349;28;20070;-69
2022/04/12 06:14:27;;;;;;;15.60;11.18;;;;;;;;;;5091461;28;20044;-69
2022/04/12 06:16:53;;;;;;;15.68;11.43;;;;;;;;;;5105602;28;20042;-69
2022/04/12 06:19:19;;;;;;;16.30;11.85;;;;;;;;;;5111926;28;20049;-69
2022/04/12 06:21:45;;;;;;;15.35;11.63;;;;;;;;;;5094208;28;20036;-67
2022/04/12 06:24:11;;;;;;;15.52;10.98;;;;;;;;;;5112805;28;20071;-70
2022/04/12 06:26:37;;;;;;;15.00;11.63;;;;;;;;;;5111565;28;20043;-69
2022/04/12 06:29:03;;;;;;;15.63;11.70;;;;;;;;;;5112628;28;20047;-69
2022/04/12 06:31:29;;;;;;;16.55;11.60;;;;;;;;;;5112641;28;20494;-69
2022/04/12 06:33:55;;;;;;;14.95;11.65;;;;;;;;;;5112530;28;20119;-69
2022/04/12 06:36:21;;;;;;;15.27;11.77;;;;;;;;;;5112220;28;20398;-68
2022/04/12 06:38:47;;;;;;;17.00;12.32;;;;;;;;;;5109696;28;20398;-68
2022/04/12 06:41:13;;;;;;;17.95;11.38;;;;;;;;;;5107575;28;20108;-69
2022/04/12 06:43:39;;;;;;;16.48;12.00;;;;;;;;;;5091481;28;20032;-70
2022/04/12 06:46:05;;;;;;;15.65;10.88;;;;;;;;;;5094839;28;20047;-68
2022/04/12 06:48:31;;;;;;;15.40;10.93;;;;;;;;;;5112444;28;20509;-69
2022/04/12 06:50:57;;;;;;;14.73;11.18;;;;;;;;;;5112553;28;20039;-69
2022/04/12 06:53:23;;;;;;;16.92;11.05;;;;;;;;;;5112277;28;20039;-70
2022/04/12 06:55:49;;;;;;;16.38;11.23;;;;;;;;;;5089214;28;20048;-70
2022/04/12 06:58:16;;;;;;;15.45;11.30;;;;;;;;;;5099899;28;20063;-69
2022/04/12 07:00:43;;;;;;;14.43;11.10;;;;;;;;;;5097850;28;20082;-70
2022/04/12 07:03:09;;;;;;;15.50;10.70;;;;;;;;;;5115617;28;20444;-70
2022/04/12 07:05:35;;;;;;;14.88;11.45;;;;;;;;;;5116093;28;20465;-69
2022/04/12 07:08:00;;;;;;;14.05;10.95;;;;;;;;;;5115961;28;20082;-68
2022/04/12 07:10:26;;;;;;;17.00;11.60;;;;;;;;;;5081059;28;20040;-69
2022/04/12 07:12:53;;;;;;;15.93;10.43;;;;;;;;;;5115780;28;20052;-69
2022/04/12 07:15:20;;;;;;;15.63;10.70;;;;;;;;;;5114286;28;20078;-69
2022/04/12 07:17:46;;;;;;;15.27;11.30;;;;;;;;;;5116243;28;20122;-70
2022/04/12 07:20:13;;;;;;;17.08;11.55;;;;;;;;;;5115617;28;20040;-70
2022/04/12 07:22:39;;;;;;;16.88;10.63;;;;;;;;;;5115991;28;20057;-69
2022/04/12 07:25:05;;;;;;;15.35;11.00;;;;;;;;;;5115119;28;20130;-70
2022/04/12 07:27:36;;;;;;;14.57;10.60;;;;;;;;;;5097802;28;20054;-70
2022/04/12 07:30:03;;;;;;;17.15;10.90;;;;;;;;;;5096157;28;20059;-69
2022/04/12 07:32:29;;;;;;;16.58;11.65;;;;;;;;;;5115079;28;20486;-71
2022/04/12 07:34:55;;;;;;;15.90;10.93;;;;;;;;;;5115089;28;20173;-70
2022/04/12 07:37:21;;;;;;;13.50;10.63;;;;;;;;;;5115347;28;20099;-69
2022/04/12 07:39:47;;;;;;;14.45;10.57;;;;;;;;;;5093857;28;20048;-70
2022/04/12 07:42:14;;;;;;;14.52;10.23;;;;;;;;;;5101779;28;20379;-69
2022/04/12 07:44:40;;;;;;;13.60;9.57;;;;;;;;;;5107511;28;20048;-70
2022/04/12 07:47:06;;;;;;;13.85;10.25;;;;;;;;;;5112632;28;20089;-70
2022/04/12 07:49:32;;;;;;;14.27;10.90;;;;;;;;;;5114349;28;20140;-69
2022/04/12 07:51:58;;;;;;;13.45;10.25;;;;;;;;;;5104977;28;20498;-69
2022/04/12 07:54:25;;;;;;;13.90;9.43;;;;;;;;;;5105155;28;20100;-71
2022/04/12 07:56:51;;;;;;;13.82;9.85;;;;;;;;;;5104513;28;20096;-70
2022/04/12 07:59:17;;;;;;;13.20;9.98;;;;;;;;;;5096762;28;20051;-69
2022/04/12 08:01:43;;;;;;;15.90;9.93;;;;;;;;;;5097048;28;20046;-68
2022/04/12 08:04:09;;;;;;;12.48;9.60;;;;;;;;;;5115185;28;20039;-70
2022/04/12 08:06:36;;;;;;;12.23;9.38;;;;;;;;;;5114996;28;20126;-69
2022/04/12 08:09:02;;;;;;;14.55;9.50;;;;;;;;;;5113771;28;20134;-69
2022/04/12 08:11:28;;;;;;;13.65;9.10;;;;;;;;;;5102041;28;20039;-70
2022/04/12 08:13:54;;;;;;;12.98;9.55;;;;;;;;;;5112059;28;20051;-68
2022/04/12 08:16:20;;;;;;;13.30;9.57;;;;;;;;;;5107987;28;20043;-69
2022/04/12 08:18:46;;;;;;;15.98;9.60;;;;;;;;;;5112892;28;20044;-68
2022/04/12 08:21:12;;;;;;;13.52;10.10;;;;;;;;;;5109841;28;20040;-69
2022/04/12 08:23:38;;;;;;;15.02;9.80;;;;;;;;;;5113801;28;20044;-69
2022/04/12 08:26:04;;;;;;;14.90;9.75;;;;;;;;;;5104698;28;20054;-70
2022/04/12 08:28:30;;;;;;;14.68;10.02;;;;;;;;;;5101332;28;20430;-70
2022/04/12 08:30:56;;;;;;;13.27;9.52;;;;;;;;;;5110663;28;20044;-71
2022/04/12 08:33:22;;;;;;;15.13;9.93;;;;;;;;;;5113737;28;20039;-68
2022/04/12 08:35:48;;;;;;;14.50;9.60;;;;;;;;;;5111991;28;20176;-68
2022/04/12 08:38:14;;;;;;;12.85;9.43;;;;;;;;;;5113318;28;20070;-69
2022/04/12 08:40:40;;;;;;;14.27;9.48;;;;;;;;;;5110773;28;20479;-69
2022/04/12 08:43:08;;;;;;;12.27;9.48;;;;;;;;;;5094568;28;20044;-68
2022/04/12 08:45:36;;;;;;;14.52;10.20;;;;;;;;;;5090377;28;20042;-69
2022/04/12 08:48:02;;;;;;;14.70;9.65;;;;;;;;;;5113365;28;20093;-69
2022/04/12 08:50:29;;;;;;;17.65;10.20;;;;;;;;;;5114288;28;20097;-69
2022/04/12 08:52:55;;;;;;;14.27;9.70;;;;;;;;;;5076453;28;20051;-68
2022/04/12 08:55:21;;;;;;;14.15;9.50;;;;;;;;;;5111229;28;20051;-69
2022/04/12 08:57:47;;;;;;;14.43;9.48;;;;;;;;;;5113808;28;20052;-68
2022/04/12 09:00:13;;;;;;;13.82;8.55;;;;;;;;;;5113772;28;20517;-70
2022/04/12 09:02:40;;;;;;;14.55;9.80;;;;;;;;;;5114114;28;20039;-68
2022/04/12 09:05:06;;;;;;;13.40;9.52;;;;;;;;;;5113594;28;20150;-69
2022/04/12 09:07:32;;;;;;;13.48;9.30;;;;;;;;;;5095698;28;20505;-69
2022/04/12 09:10:06;;;;;;;16.45;9.45;;;;;;;;;;5095289;28;20383;-68
2022/04/12 09:12:34;;;;;;;16.00;9.80;;;;;;;;;;5094372;28;20109;-69
2022/04/12 09:15:01;;;;;;;14.20;10.10;;;;;;;;;;5109912;28;20043;-70
2022/04/12 09:17:30;;;;;;;15.52;9.50;;;;;;;;;;5112526;28;20047;-70
2022/04/12 09:19:56;;;;;;;12.43;9.18;;;;;;;;;;5112623;28;20737;-69
2022/04/12 09:22:23;;;;;;;13.95;10.07;;;;;;;;;;5091252;28;20031;-69
2022/04/12 09:24:50;;;;;;;13.75;9.18;;;;;;;;;;5105093;28;20031;-69
2022/04/12 09:27:17;;;;;;;12.60;9.23;;;;;;;;;;5103631;28;20054;-70
2022/04/12 09:30:02;;;;;;;12.82;9.30;;;;;;;;;;5104784;28;20048;-69
2022/04/12 09:32:29;;;;;;;14.15;10.60;;;;;;;;;;5098087;28;20035;-70
2022/04/12 09:34:55;;;;;;;12.88;8.60;;;;;;;;;;5111727;28;20043;-68
2022/04/12 09:37:32;;;;;;;16.08;11.23;;;;;;;;;;5111872;28;20435;-71
2022/04/12 09:40:02;;;;;;;16.92;9.55;;;;;;;;;;5109046;28;20399;-70
2022/04/12 09:42:49;;;;;;;15.43;9.20;;;;;;;;;;5111801;28;20123;-70
2022/04/12 09:45:15;;;;;;;12.65;8.48;;;;;;;;;;5108169;28;20044;-69
2022/04/12 09:47:42;;;;;;;13.25;9.13;;;;;;;;;;5111275;28;20040;-68
2022/04/12 09:50:09;;;;;;;12.52;9.25;;;;;;;;;;5112942;28;20486;-69
2022/04/12 09:52:35;;;;;;;14.55;9.32;;;;;;;;;;5094383;28;20032;-69
2022/04/12 09:55:01;;;;;;;13.27;8.98;;;;;;;;;;5112599;28;20407;-69
2022/04/12 09:57:27;;;;;;;13.70;9.57;;;;;;;;;;5099030;28;20050;-68
2022/04/12 09:59:56;;;;;;;14.25;9.40;;;;;;;;;;5113158;28;20043;-69
2022/04/12 10:02:24;;;;;;;12.30;9.20;;;;;;;;;;5112125;28;20118;-69
2022/04/12 10:04:51;;;;;;;13.73;9.68;;;;;;;;;;5112445;28;20079;-70
2022/04/12 10:07:18;;;;;;;14.10;9.23;;;;;;;;;;5109617;28;20043;-69
2022/04/12 10:09:44;;;;;;;12.88;8.98;;;;;;;;;;5110966;28;20050;-70
2022/04/12 10:12:10;;;;;;;12.70;8.80;;;;;;;;;;5100999;28;20060;-70
2022/04/12 10:14:37;;;;;;;16.40;9.00;;;;;;;;;;5108588;28;20056;-70
2022/04/12 10:17:04;;;;;;;11.68;8.60;;;;;;;;;;5093327;28;20044;-70
2022/04/12 10:19:31;;;;;;;15.57;9.52;;;;;;;;;;5110807;28;20043;-71
2022/04/12 10:21:57;;;;;;;12.63;9.07;;;;;;;;;;5111661;28;20042;-70
2022/04/12 10:24:23;;;;;;;13.73;9.02;;;;;;;;;;5064717;28;20039;-68
2022/04/12 10:26:51;;;;;;;11.90;9.77;;;;;;;;;;5093303;28;20106;-70
2022/04/12 10:29:17;;;;;;;11.73;8.80;;;;;;;;;;5107717;28;20123;-71
2022/04/12 10:31:56;;;;;;;14.95;8.65;;;;;;;;;;5093185;28;20043;-69
2022/04/12 10:34:22;;;;;;;14.23;9.27;;;;;;;;;;5096377;28;20406;-71
2022/04/12 10:36:58;;;;;;;13.52;8.68;;;;;;;;;;5115219;28;20055;-70
2022/04/12 10:39:30;;;;;;;14.00;9.05;;;;;;;;;;5116636;28;20043;-70
2022/04/12 10:41:57;;;;;;;14.50;8.93;;;;;;;;;;5115955;28;20047;-70
2022/04/12 10:44:23;;;;;;;13.90;8.43;;;;;;;;;;5097376;28;20044;-69
2022/04/12 10:46:51;;;;;;;12.25;8.85;;;;;;;;;;5114786;28;20055;-70
2022/04/12 10:49:23;;;;;;;14.75;9.48;;;;;;;;;;5116310;28;20039;-69
2022/04/12 10:51:57;;;;;;;14.00;9.05;;;;;;;;;;5115873;28;20047;-69
2022/04/12 10:54:28;;;;;;;12.90;9.07;;;;;;;;;;5100420;28;20090;-70
2022/04/12 10:57:13;;;;;;;13.15;9.52;;;;;;;;;;5115728;28;20052;-69
2022/04/12 10:59:39;;;;;;;15.30;8.55;;;;;;;;;;5104866;28;20040;-68
2022/04/12 11:02:11;;;;;;;13.40;9.13;;;;;;;;;;5115555;28;20543;-70
2022/04/12 11:04:37;;;;;;;14.38;9.30;;;;;;;;;;5109696;28;20502;-70
2022/04/12 11:07:06;;;;;;;16.05;9.90;;;;;;;;;;5113619;28;20490;-70
2022/04/12 11:09:32;;;;;;;14.15;9.30;;;;;;;;;;5114368;28;20509;-69
2022/04/12 11:12:01;;;;;;;12.88;9.77;;;;;;;;;;5108707;28;20095;-69
2022/04/12 11:14:37;;;;;;;12.80;9.38;;;;;;;;;;5095284;28;20078;-69
2022/04/12 11:17:03;;;;;;;13.35;9.52;;;;;;;;;;5114184;28;20051;-70
2022/04/12 11:19:41;;;;;;;13.85;9.73;;;;;;;;;;5115141;28;20108;-70
2022/04/12 11:22:10;;;;;;;17.73;9.43;;;;;;;;;;5114202;28;20036;-70
2022/04/12 11:24:36;;;;;;;15.45;9.70;;;;;;;;;;5111684;28;20052;-70
2022/04/12 11:27:05;;;;;;;13.32;9.60;;;;;;;;;;5111129;28;20039;-70
2022/04/12 11:29:31;;;;;;;15.60;9.95;;;;;;;;;;5114748;28;20039;-69
2022/04/12 11:31:58;;;;;;;14.02;9.63;;;;;;;;;;5115595;28;20040;-70
2022/04/12 11:34:26;;;;;;;14.68;9.10;;;;;;;;;;5097169;28;20520;-69
2022/04/12 11:37:02;;;;;;;13.15;9.35;;;;;;;;;;5115318;28;20040;-69
2022/04/12 11:39:30;;;;;;;24.67;9.75;;;;;;;;;;5094939;28;21554;-69
2022/04/12 11:41:57;;;;;;;17.95;8.57;;;;;;;;;;5114538;28;20039;-69
2022/04/12 11:44:23;;;;;;;19.27;9.80;;;;;;;;;;5095646;28;20040;-68
2022/04/12 11:47:01;;;;;;;16.00;9.65;;;;;;;;;;5095196;28;20047;-70
2022/04/12 11:49:28;;;;;;;13.57;8.77;;;;;;;;;;5108896;28;20051;-69
2022/04/12 11:51:55;;;;;;;17.15;9.63;;;;;;;;;;5112375;28;20126;-69
2022/04/12 11:54:24;;;;;;;15.30;9.82;;;;;;;;;;5113388;28;20063;-69
2022/04/12 11:56:52;;;;;;;14.70;9.82;;;;;;;;;;5114806;28;20047;-70
2022/04/12 11:59:19;;;;;;;14.32;9.18;;;;;;;;;;5112314;28;20039;-69
2022/04/12 12:01:45;;;;;;;13.18;9.27;;;;;;;;;;5113219;28;20058;-70
2022/04/12 12:04:11;;;;;;;14.60;9.63;;;;;;;;;;5098990;28;20060;-70
2022/04/12 12:06:54;;;;;;;16.00;10.82;;;;;;;;;;5098917;28;20070;-70
2022/04/12 12:09:20;;;;;;;16.83;9.70;;;;;;;;;;5096076;28;20039;-70
2022/04/12 12:11:48;;;;;;;15.18;11.00;;;;;;;;;;5112806;28;20459;-71
2022/04/12 12:14:14;;;;;;;15.68;10.48;;;;;;;;;;5113069;28;20406;-68
2022/04/12 12:16:41;;;;;;;14.32;10.25;;;;;;;;;;5113486;28;20390;-69
2022/04/12 12:19:11;;;;;;;16.50;10.55;;;;;;;;;;5104236;28;20048;-70
2022/04/12 12:21:37;;;;;;;14.55;10.88;;;;;;;;;;5105202;28;20445;-70
2022/04/12 12:24:06;;;;;;;15.70;10.23;;;;;;;;;;5106466;28;20052;-69
2022/04/12 12:26:32;;;;;;;15.57;10.52;;;;;;;;;;5114447;28;20044;-69
2022/04/12 12:28:59;;;;;;;16.45;10.38;;;;;;;;;;5104628;28;20040;-71
2022/04/12 12:31:26;;;;;;;15.65;9.82;;;;;;;;;;5094454;28;20105;-71
2022/04/12 12:33:52;;;;;;;15.63;11.00;;;;;;;;;;5108318;28;20039;-69
2022/04/12 12:36:22;;;;;;;14.73;10.60;;;;;;;;;;5095344;28;20047;-70
2022/04/12 12:38:48;;;;;;;15.45;10.60;;;;;;;;;;5096253;28;20047;-70
2022/04/12 12:41:31;;;;;;;17.17;11.07;;;;;;;;;;5106404;28;20558;-70
2022/04/12 12:43:58;;;;;;;17.77;11.18;;;;;;;;;;5113877;28;20055;-70
2022/04/12 12:46:28;;;;;;;17.75;11.30;;;;;;;;;;5094725;28;20060;-70
2022/04/12 12:49:13;;;;;;;16.58;10.88;;;;;;;;;;5102472;28;20108;-70
2022/04/12 12:51:40;;;;;;;21.90;11.82;;;;;;;;;;5105440;28;20059;-71
2022/04/12 12:54:08;;;;;;;18.08;11.30;;;;;;;;;;5111949;28;20044;-70
2022/04/12 12:56:39;;;;;;;16.55;11.52;;;;;;;;;;5112422;28;20042;-70
2022/04/12 12:59:21;;;;;;;16.17;11.63;;;;;;;;;;5113647;28;20749;-69
2022/04/12 13:01:48;;;;;;;18.65;11.25;;;;;;;;;;5112512;28;20039;-70
2022/04/12 13:04:25;;;;;;;17.00;11.93;;;;;;;;;;5112678;28;20051;-70
2022/04/12 13:06:59;;;;;;;17.13;11.38;;;;;;;;;;5113903;28;20494;-71
2022/04/12 13:09:25;;;;;;;16.55;10.55;;;;;;;;;;5111964;28;20047;-70
2022/04/12 13:11:52;;;;;;;18.58;11.70;;;;;;;;;;5099510;28;20521;-69
2022/04/12 13:14:18;;;;;;;16.80;11.43;;;;;;;;;;5103496;28;20097;-70
2022/04/12 13:16:44;;;;;;;18.73;12.20;;;;;;;;;;5113925;28;20558;-70
2022/04/12 13:19:10;;;;;;;19.42;12.18;;;;;;;;;;5113263;28;20493;-70
2022/04/12 13:21:36;;;;;;;17.80;10.95;;;;;;;;;;5091320;28;20118;-69
2022/04/12 13:24:02;;;;;;;16.20;11.35;;;;;;;;;;5112091;28;20047;-71
2022/04/12 13:26:28;;;;;;;18.05;12.00;;;;;;;;;;5094637;28;20059;-70
2022/04/12 13:28:54;;;;;;;17.45;11.60;;;;;;;;;;5112424;28;20494;-70
2022/04/12 13:31:20;;;;;;;16.65;10.45;;;;;;;;;;5112311;28;20055;-70
2022/04/12 13:33:46;;;;;;;13.52;9.45;;;;;;;;;;5095795;28;20055;-70
2022/04/12 13:36:12;;;;;;;15.18;9.98;;;;;;;;;;5099636;28;20050;-69
2022/04/12 13:38:38;;;;;;;16.20;10.07;;;;;;;;;;5097073;28;20040;-70
2022/04/12 13:41:04;;;;;;;15.32;10.02;;;;;;;;;;5110701;28;20089;-71
2022/04/12 13:43:31;;;;;;;18.17;9.57;;;;;;;;;;5106901;28;20498;-70
2022/04/12 13:45:58;;;;;;;17.08;10.23;;;;;;;;;;5106472;28;20044;-70
2022/04/12 13:48:24;;;;;;;16.10;10.45;;;;;;;;;;5086482;28;20066;-69
2022/04/12 13:50:51;;;;;;;17.90;10.13;;;;;;;;;;5104814;28;20490;-70
2022/04/12 13:53:17;;;;;;;15.70;9.45;;;;;;;;;;5110465;28;20062;-71
2022/04/12 13:55:44;;;;;;;14.55;9.45;;;;;;;;;;5113084;28;20044;-69
2022/04/12 13:58:10;;;;;;;13.70;9.40;;;;;;;;;;5106716;28;20058;-69
2022/04/12 14:00:36;;;;;;;15.02;9.65;;;;;;;;;;5097587;28;20079;-69
2022/04/12 14:03:02;;;;;;;17.10;9.15;;;;;;;;;;5096303;28;20054;-69
2022/04/12 14:05:28;;;;;;;15.73;9.10;;;;;;;;;;5111786;28;20059;-68
2022/04/12 14:07:57;;;;;;;15.40;9.40;;;;;;;;;;5099700;28;20487;-69
2022/04/12 14:10:23;;;;;;;12.85;9.05;;;;;;;;;;5116124;28;20105;-69
2022/04/12 14:12:49;;;;;;;13.40;8.20;;;;;;;;;;5096026;28;20809;-69
2022/04/12 14:15:15;;;;;;;15.15;9.02;;;;;;;;;;5115459;28;20052;-70
2022/04/12 14:17:41;;;;;;;13.60;9.07;;;;;;;;;;5116412;28;20551;-69
2022/04/12 14:20:07;;;;;;;19.13;9.98;;;;;;;;;;5115721;28;20047;-70
2022/04/12 14:22:35;;;;;;;16.08;9.88;;;;;;;;;;5112938;28;20482;-72